createdAt,value
2023-05-05T00:00:57.618Z,452.00
2023-05-05T00:01:57.714Z,433.00
2023-05-05T00:02:57.887Z,432.00
2023-05-05T00:03:57.902Z,444.00
2023-05-05T00:04:57.957Z,460.00
2023-05-05T00:05:58.079Z,489.00
2023-05-05T00:06:58.132Z,500.00
2023-05-05T00:07:58.236Z,500.00
2023-05-05T00:08:58.322Z,504.00
2023-05-05T00:09:58.397Z,500.00
2023-05-05T00:10:58.510Z,503.00
2023-05-05T00:11:58.572Z,500.00
2023-05-05T00:12:58.678Z,506.00
2023-05-05T00:13:58.748Z,500.00
2023-05-05T00:14:58.853Z,500.00
2023-05-05T00:15:58.950Z,501.00
2023-05-05T00:16:59.080Z,505.00
2023-05-05T00:17:59.213Z,503.00
2023-05-05T00:18:59.335Z,501.00
2023-05-05T00:19:59.321Z,501.00
2023-05-05T00:20:59.429Z,502.00
2023-05-05T00:21:59.501Z,501.00
2023-05-05T00:22:59.595Z,507.00
2023-05-05T00:23:59.704Z,506.00
2023-05-05T00:24:59.790Z,506.00
2023-05-05T00:25:59.871Z,500.00
2023-05-05T00:26:59.988Z,500.00
2023-05-05T00:28:00.075Z,501.00
2023-05-05T00:29:00.148Z,502.00
2023-05-05T00:30:00.247Z,503.00
2023-05-05T00:31:00.415Z,506.00
2023-05-05T00:32:00.418Z,502.00
2023-05-05T00:33:00.546Z,500.00
2023-05-05T00:34:00.613Z,507.00
2023-05-05T00:35:00.705Z,502.00
2023-05-05T00:36:00.741Z,502.00
2023-05-05T00:37:00.825Z,500.00
2023-05-05T00:38:00.878Z,502.00
2023-05-05T00:39:00.971Z,502.00
2023-05-05T00:40:01.063Z,506.00
2023-05-05T00:41:01.160Z,504.00
2023-05-05T00:42:01.299Z,502.00
2023-05-05T00:43:01.332Z,507.00
2023-05-05T00:44:01.407Z,514.00
2023-05-05T00:45:01.479Z,505.00
2023-05-05T00:46:01.617Z,503.00
2023-05-05T00:47:01.679Z,507.00
2023-05-05T00:48:01.871Z,500.00
2023-05-05T00:49:01.863Z,502.00
2023-05-05T00:50:01.857Z,503.00
2023-05-05T00:51:01.919Z,503.00
2023-05-05T00:52:02.001Z,500.00
2023-05-05T00:53:02.063Z,501.00
2023-05-05T00:54:02.127Z,504.00
2023-05-05T00:55:02.214Z,505.00
2023-05-05T00:56:02.306Z,509.00
2023-05-05T00:57:02.384Z,509.00
2023-05-05T00:58:02.467Z,508.00
2023-05-05T00:59:02.514Z,504.00
2023-05-05T01:00:02.587Z,511.00
2023-05-05T01:01:02.649Z,515.00
2023-05-05T01:02:02.755Z,505.00
2023-05-05T01:03:02.769Z,503.00
2023-05-05T01:04:02.868Z,512.00
2023-05-05T01:05:02.840Z,505.00
2023-05-05T01:06:02.934Z,502.00
2023-05-05T01:07:03.046Z,512.00
2023-05-05T01:08:03.113Z,507.00
2023-05-05T01:09:03.199Z,511.00
2023-05-05T01:10:15.614Z,507.00
2023-05-05T01:11:03.314Z,507.00
2023-05-05T01:12:03.344Z,509.00
2023-05-05T01:13:03.396Z,509.00
2023-05-05T01:14:03.411Z,510.00
2023-05-05T01:15:03.431Z,504.00
2023-05-05T01:16:03.508Z,507.00
2023-05-05T01:17:03.483Z,503.00
2023-05-05T01:18:03.547Z,507.00
2023-05-05T01:19:03.538Z,508.00
2023-05-05T01:20:03.562Z,504.00
2023-05-05T01:21:03.593Z,506.00
2023-05-05T01:22:03.623Z,500.00
2023-05-05T01:23:03.655Z,503.00
2023-05-05T01:24:03.689Z,510.00
2023-05-05T01:25:03.720Z,512.00
2023-05-05T01:26:03.742Z,514.00
2023-05-05T01:27:03.765Z,514.00
2023-05-05T01:28:03.801Z,509.00
2023-05-05T01:29:03.850Z,515.00
2023-05-05T01:30:03.903Z,511.00
2023-05-05T01:31:03.943Z,512.00
2023-05-05T01:32:04.015Z,508.00
2023-05-05T01:33:03.979Z,508.00
2023-05-05T01:34:04.038Z,508.00
2023-05-05T01:35:04.050Z,511.00
2023-05-05T01:36:04.079Z,514.00
2023-05-05T01:37:04.112Z,511.00
2023-05-05T01:38:04.168Z,513.00
2023-05-05T01:39:04.178Z,517.00
2023-05-05T01:40:04.310Z,512.00
2023-05-05T01:41:04.234Z,509.00
2023-05-05T01:42:04.266Z,516.00
2023-05-05T01:43:04.309Z,513.00
2023-05-05T01:44:04.364Z,509.00
2023-05-05T01:45:04.391Z,515.00
2023-05-05T01:46:04.460Z,514.00
2023-05-05T01:47:04.467Z,512.00
2023-05-05T01:48:04.489Z,508.00
2023-05-05T01:49:04.497Z,516.00
2023-05-05T01:50:04.535Z,516.00
2023-05-05T01:51:04.566Z,518.00
2023-05-05T01:52:04.639Z,518.00
2023-05-05T01:53:04.692Z,513.00
2023-05-05T01:54:04.750Z,513.00
2023-05-05T01:55:04.848Z,510.00
2023-05-05T01:56:04.878Z,512.00
2023-05-05T01:57:04.944Z,511.00
2023-05-05T01:58:04.964Z,515.00
2023-05-05T01:59:05.017Z,514.00
2023-05-05T02:00:05.093Z,518.00
2023-05-05T02:01:05.132Z,518.00
2023-05-05T02:02:05.250Z,512.00
2023-05-05T02:03:05.260Z,513.00
2023-05-05T02:04:05.223Z,515.00
2023-05-05T02:05:05.278Z,514.00
2023-05-05T02:06:05.343Z,513.00
2023-05-05T02:07:05.379Z,517.00
2023-05-05T02:08:05.412Z,517.00
2023-05-05T02:09:05.457Z,513.00
2023-05-05T02:10:05.631Z,515.00
2023-05-05T02:11:05.525Z,520.00
2023-05-05T02:12:05.559Z,521.00
2023-05-05T02:13:05.700Z,521.00
2023-05-05T02:14:05.630Z,521.00
2023-05-05T02:15:05.702Z,523.00
2023-05-05T02:16:05.825Z,519.00
2023-05-05T02:17:05.790Z,518.00
2023-05-05T02:18:05.880Z,517.00
2023-05-05T02:19:05.862Z,520.00
2023-05-05T02:20:05.985Z,517.00
2023-05-05T02:21:05.936Z,516.00
2023-05-05T02:22:05.988Z,526.00
2023-05-05T02:23:06.118Z,518.00
2023-05-05T02:24:06.090Z,520.00
2023-05-05T02:25:06.106Z,522.00
2023-05-05T02:26:06.172Z,523.00
2023-05-05T02:27:06.189Z,524.00
2023-05-05T02:28:06.247Z,514.00
2023-05-05T02:29:06.287Z,529.00
2023-05-05T02:30:06.735Z,526.00
2023-05-05T02:31:06.394Z,520.00
2023-05-05T02:32:06.407Z,523.00
2023-05-05T02:33:06.597Z,521.00
2023-05-05T02:34:06.505Z,515.00
2023-05-05T02:35:06.527Z,520.00
2023-05-05T02:36:06.572Z,520.00
2023-05-05T02:37:06.607Z,519.00
2023-05-05T02:38:06.680Z,522.00
2023-05-05T02:39:06.698Z,516.00
2023-05-05T02:40:06.999Z,518.00
2023-05-05T02:41:06.763Z,518.00
2023-05-05T02:42:06.790Z,520.00
2023-05-05T02:43:06.951Z,520.00
2023-05-05T02:44:06.871Z,520.00
2023-05-05T02:45:06.900Z,523.00
2023-05-05T02:46:06.961Z,521.00
2023-05-05T02:47:06.968Z,519.00
2023-05-05T02:48:07.038Z,523.00
2023-05-05T02:49:07.045Z,522.00
2023-05-05T02:50:07.430Z,520.00
2023-05-05T02:51:07.126Z,519.00
2023-05-05T02:52:07.166Z,518.00
2023-05-05T02:53:07.216Z,523.00
2023-05-05T02:54:07.234Z,523.00
2023-05-05T02:55:07.279Z,518.00
2023-05-05T02:56:07.312Z,524.00
2023-05-05T02:57:07.347Z,521.00
2023-05-05T02:58:07.388Z,525.00
2023-05-05T02:59:07.424Z,524.00
2023-05-05T03:00:07.713Z,520.00
2023-05-05T03:01:07.571Z,524.00
2023-05-05T03:02:07.548Z,523.00
2023-05-05T03:03:07.692Z,522.00
2023-05-05T03:04:07.723Z,520.00
2023-05-05T03:05:07.680Z,521.00
2023-05-05T03:06:07.759Z,521.00
2023-05-05T03:07:07.782Z,522.00
2023-05-05T03:08:07.826Z,519.00
2023-05-05T03:09:07.863Z,519.00
2023-05-05T03:10:08.283Z,514.00
2023-05-05T03:11:07.948Z,521.00
2023-05-05T03:12:08.000Z,523.00
2023-05-05T03:13:08.208Z,516.00
2023-05-05T03:14:08.088Z,517.00
2023-05-05T03:15:08.134Z,524.00
2023-05-05T03:16:08.197Z,518.00
2023-05-05T03:17:08.214Z,523.00
2023-05-05T03:18:08.257Z,519.00
2023-05-05T03:19:08.295Z,517.00
2023-05-05T03:20:08.462Z,519.00
2023-05-05T03:21:08.394Z,516.00
2023-05-05T03:22:08.448Z,519.00
2023-05-05T03:23:08.469Z,514.00
2023-05-05T03:24:08.502Z,514.00
2023-05-05T03:25:08.557Z,516.00
2023-05-05T03:26:08.581Z,513.00
2023-05-05T03:27:08.648Z,514.00
2023-05-05T03:28:08.670Z,519.00
2023-05-05T03:29:08.722Z,520.00
2023-05-05T03:30:09.064Z,514.00
2023-05-05T03:31:08.817Z,518.00
2023-05-05T03:32:08.870Z,515.00
2023-05-05T03:33:08.925Z,516.00
2023-05-05T03:34:08.938Z,514.00
2023-05-05T03:35:08.975Z,523.00
2023-05-05T03:36:09.040Z,517.00
2023-05-05T03:37:09.072Z,516.00
2023-05-05T03:38:09.146Z,518.00
2023-05-05T03:39:09.161Z,518.00
2023-05-05T03:40:09.366Z,518.00
2023-05-05T03:41:09.260Z,513.00
2023-05-05T03:42:09.310Z,519.00
2023-05-05T03:43:09.342Z,521.00
2023-05-05T03:44:09.396Z,524.00
2023-05-05T03:45:09.445Z,521.00
2023-05-05T03:46:09.533Z,515.00
2023-05-05T03:47:09.545Z,517.00
2023-05-05T03:48:09.732Z,515.00
2023-05-05T03:49:09.641Z,516.00
2023-05-05T03:50:09.782Z,522.00
2023-05-05T03:51:09.746Z,518.00
2023-05-05T03:52:09.800Z,521.00
2023-05-05T03:53:09.858Z,516.00
2023-05-05T03:54:09.911Z,518.00
2023-05-05T03:55:09.947Z,513.00
2023-05-05T03:56:10.001Z,519.00
2023-05-05T03:57:10.053Z,520.00
2023-05-05T03:58:10.088Z,519.00
2023-05-05T03:59:10.130Z,510.00
2023-05-05T04:00:10.192Z,521.00
2023-05-05T04:01:10.242Z,514.00
2023-05-05T04:02:10.304Z,512.00
2023-05-05T04:03:10.554Z,519.00
2023-05-05T04:04:10.444Z,517.00
2023-05-05T04:05:10.428Z,516.00
2023-05-05T04:06:10.485Z,514.00
2023-05-05T04:07:10.548Z,517.00
2023-05-05T04:08:10.598Z,517.00
2023-05-05T04:09:10.634Z,516.00
2023-05-05T04:10:10.760Z,520.00
2023-05-05T04:11:10.728Z,515.00
2023-05-05T04:12:10.783Z,517.00
2023-05-05T04:13:11.037Z,517.00
2023-05-05T04:14:10.883Z,522.00
2023-05-05T04:15:10.962Z,523.00
2023-05-05T04:16:11.079Z,517.00
2023-05-05T04:17:11.052Z,518.00
2023-05-05T04:18:11.156Z,518.00
2023-05-05T04:19:11.151Z,519.00
2023-05-05T04:20:11.284Z,522.00
2023-05-05T04:21:11.259Z,518.00
2023-05-05T04:22:11.321Z,523.00
2023-05-05T04:23:11.375Z,521.00
2023-05-05T04:24:11.419Z,523.00
2023-05-05T04:25:11.473Z,522.00
2023-05-05T04:26:11.547Z,523.00
2023-05-05T04:27:11.567Z,521.00
2023-05-05T04:28:11.617Z,515.00
2023-05-05T04:29:11.660Z,522.00
2023-05-05T04:30:11.716Z,523.00
2023-05-05T04:31:11.785Z,524.00
2023-05-05T04:32:11.812Z,520.00
2023-05-05T04:33:11.864Z,514.00
2023-05-05T04:34:11.919Z,522.00
2023-05-05T04:35:11.977Z,522.00
2023-05-05T04:36:12.018Z,524.00
2023-05-05T04:37:12.074Z,525.00
2023-05-05T04:38:12.128Z,521.00
2023-05-05T04:39:12.168Z,523.00
2023-05-05T04:40:12.241Z,523.00
2023-05-05T04:41:12.279Z,520.00
2023-05-05T04:42:12.350Z,524.00
2023-05-05T04:43:12.377Z,527.00
2023-05-05T04:44:12.435Z,520.00
2023-05-05T04:45:12.485Z,527.00
2023-05-05T04:46:12.568Z,526.00
2023-05-05T04:47:14.550Z,517.00
2023-05-05T04:48:12.620Z,521.00
2023-05-05T04:49:12.658Z,529.00
2023-05-05T04:50:12.718Z,529.00
2023-05-05T04:51:12.752Z,532.00
2023-05-05T04:52:12.762Z,529.00
2023-05-05T04:53:12.801Z,527.00
2023-05-05T04:54:12.838Z,527.00
2023-05-05T04:55:12.859Z,526.00
2023-05-05T04:56:12.905Z,525.00
2023-05-05T04:57:12.940Z,519.00
2023-05-05T04:58:13.000Z,525.00
2023-05-05T04:59:13.005Z,525.00
2023-05-05T05:00:13.061Z,528.00
2023-05-05T05:01:13.096Z,524.00
2023-05-05T05:02:13.177Z,524.00
2023-05-05T05:03:13.224Z,525.00
2023-05-05T05:04:13.197Z,523.00
2023-05-05T05:05:13.268Z,521.00
2023-05-05T05:06:13.254Z,519.00
2023-05-05T05:07:13.288Z,517.00
2023-05-05T05:08:13.318Z,521.00
2023-05-05T05:09:13.334Z,518.00
2023-05-05T05:10:13.361Z,499.00
2023-05-05T05:11:13.389Z,503.00
2023-05-05T05:12:13.426Z,501.00
2023-05-05T05:13:13.497Z,502.00
2023-05-05T05:14:13.518Z,503.00
2023-05-05T05:15:13.532Z,502.00
2023-05-05T05:16:14.022Z,506.00
2023-05-05T05:17:13.594Z,502.00
2023-05-05T05:18:13.945Z,510.00
2023-05-05T05:19:13.683Z,506.00
2023-05-05T05:20:13.689Z,508.00
2023-05-05T05:21:13.952Z,509.00
2023-05-05T05:22:13.741Z,502.00
2023-05-05T05:23:13.779Z,502.00
2023-05-05T05:24:13.826Z,506.00
2023-05-05T05:25:13.857Z,504.00
2023-05-05T05:26:13.887Z,500.00
2023-05-05T05:27:13.927Z,505.00
2023-05-05T05:28:14.450Z,500.00
2023-05-05T05:29:13.973Z,508.00
2023-05-05T05:30:14.025Z,505.00
2023-05-05T05:31:14.035Z,500.00
2023-05-05T05:32:14.129Z,500.00
2023-05-05T05:33:14.094Z,500.00
2023-05-05T05:34:14.138Z,503.00
2023-05-05T05:35:14.158Z,508.00
2023-05-05T05:36:14.184Z,510.00
2023-05-05T05:37:14.218Z,507.00
2023-05-05T05:38:14.279Z,508.00
2023-05-05T05:39:14.282Z,502.00
2023-05-05T05:40:14.318Z,502.00
2023-05-05T05:41:14.452Z,507.00
2023-05-05T05:42:14.423Z,506.00
2023-05-05T05:43:14.487Z,510.00
2023-05-05T05:44:14.578Z,511.00
2023-05-05T05:45:14.628Z,514.00
2023-05-05T05:46:14.987Z,513.00
2023-05-05T05:47:14.777Z,509.00
2023-05-05T05:48:14.970Z,510.00
2023-05-05T05:49:14.903Z,520.00
2023-05-05T05:50:15.010Z,527.00
2023-05-05T05:51:22.841Z,540.00
2023-05-05T05:52:15.063Z,540.00
2023-05-05T05:53:31.061Z,542.00
2023-05-05T05:54:18.352Z,542.00
2023-05-05T05:55:15.160Z,542.00
2023-05-05T05:57:15.214Z,543.00
2023-05-05T05:58:15.255Z,553.00
2023-05-05T05:59:15.457Z,569.00
2023-05-05T06:00:15.599Z,595.00
2023-05-05T06:01:15.325Z,626.00
2023-05-05T06:02:31.300Z,632.00
2023-05-05T06:03:18.900Z,632.00
2023-05-05T06:04:15.450Z,633.00
2023-05-05T06:07:22.869Z,634.00
2023-05-05T06:08:16.855Z,634.00
2023-05-05T06:09:15.530Z,634.00
2023-05-05T06:10:27.345Z,641.00
2023-05-05T06:12:16.655Z,635.00
2023-05-05T06:14:32.281Z,635.00
2023-05-05T06:15:18.873Z,635.00
2023-05-05T06:16:15.708Z,636.00
2023-05-05T06:17:15.725Z,648.00
2023-05-05T06:18:16.340Z,673.00
2023-05-05T06:19:47.738Z,754.00
2023-05-05T06:20:15.808Z,635.00
2023-05-05T06:21:15.805Z,649.00
2023-05-05T06:22:16.821Z,669.00
2023-05-05T06:23:16.240Z,736.00
2023-05-05T06:24:15.885Z,815.00
2023-05-05T06:25:15.888Z,830.00
2023-05-05T06:26:15.964Z,792.00
2023-05-05T06:27:15.957Z,804.00
2023-05-05T06:28:16.184Z,817.00
2023-05-05T06:29:16.483Z,817.00
2023-05-05T06:30:16.030Z,810.00
2023-05-05T06:31:16.076Z,822.00
2023-05-05T06:32:16.176Z,804.00
2023-05-05T06:33:16.980Z,807.00
2023-05-05T06:34:16.494Z,787.00
2023-05-05T06:35:16.346Z,779.00
2023-05-05T06:36:16.476Z,786.00
2023-05-05T06:37:16.493Z,780.00
2023-05-05T06:38:17.554Z,756.00
2023-05-05T06:39:16.998Z,754.00
2023-05-05T06:40:16.683Z,719.00
2023-05-05T06:41:16.732Z,692.00
2023-05-05T06:42:16.794Z,688.00
2023-05-05T06:43:16.853Z,724.00
2023-05-05T06:44:17.998Z,720.00
2023-05-05T06:45:24.367Z,704.00
2023-05-05T06:46:17.360Z,705.00
2023-05-05T06:47:17.542Z,704.00
2023-05-05T06:48:17.032Z,707.00
2023-05-05T06:49:17.500Z,709.00
2023-05-05T06:50:17.126Z,724.00
2023-05-05T06:51:17.048Z,761.00
2023-05-05T06:52:17.079Z,761.00
2023-05-05T06:53:17.098Z,748.00
2023-05-05T12:17:21.294Z,500.00
2023-05-05T12:18:22.094Z,500.00
2023-05-05T12:19:22.071Z,500.00
2023-05-05T12:20:22.069Z,500.00
2023-05-05T12:21:22.059Z,500.00
2023-05-05T12:22:22.101Z,500.00
2023-05-05T12:23:22.076Z,500.00
2023-05-05T12:24:22.069Z,500.00
2023-05-05T12:25:22.104Z,500.00
2023-05-05T12:26:22.057Z,503.00
2023-05-05T12:27:22.069Z,502.00
2023-05-05T12:28:22.059Z,500.00
2023-05-05T12:29:22.054Z,501.00
2023-05-05T12:30:22.135Z,509.00
2023-05-05T12:31:22.090Z,500.00
2023-05-05T12:32:22.103Z,500.00
2023-05-05T12:33:22.278Z,503.00
2023-05-05T12:34:22.061Z,503.00
2023-05-05T12:35:22.072Z,504.00
2023-05-05T12:36:22.276Z,504.00
2023-05-05T12:37:22.098Z,500.00
2023-05-05T12:38:22.097Z,501.00
2023-05-05T12:39:22.079Z,500.00
2023-05-05T12:40:22.085Z,505.00
2023-05-05T12:41:22.086Z,507.00
2023-05-05T12:42:22.136Z,507.00
2023-05-05T12:43:22.191Z,500.00
2023-05-05T12:44:22.268Z,503.00
2023-05-05T12:45:22.327Z,505.00
2023-05-05T12:46:22.520Z,508.00
2023-05-05T12:47:22.778Z,505.00
2023-05-05T12:48:22.524Z,508.00
2023-05-05T12:49:22.695Z,514.00
2023-05-05T12:50:22.785Z,513.00
2023-05-05T12:51:22.739Z,509.00
2023-05-05T12:52:22.813Z,508.00
2023-05-05T12:53:22.896Z,500.00
2023-05-05T12:54:22.964Z,509.00
2023-05-05T12:55:23.287Z,510.00
2023-05-05T12:56:23.068Z,516.00
2023-05-05T12:57:23.127Z,513.00
2023-05-05T12:58:23.210Z,505.00
2023-05-05T12:59:23.345Z,506.00
2023-05-05T13:00:23.330Z,510.00
2023-05-05T13:01:23.512Z,513.00
2023-05-05T13:02:23.534Z,510.00
2023-05-05T13:03:23.713Z,512.00
2023-05-05T13:04:23.581Z,500.00
2023-05-05T13:05:23.911Z,507.00
2023-05-05T13:06:23.659Z,516.00
2023-05-05T13:07:23.717Z,498.00
2023-05-05T13:08:23.785Z,500.00
2023-05-05T13:09:23.834Z,507.00
2023-05-05T13:10:23.881Z,531.00
2023-05-05T13:11:23.940Z,524.00
2023-05-05T13:12:25.221Z,544.00
2023-05-05T13:13:24.050Z,567.00
2023-05-05T13:14:24.110Z,590.00
2023-05-05T13:15:24.191Z,591.00
2023-05-05T13:16:24.336Z,611.00
2023-05-05T13:17:24.338Z,691.00
2023-05-05T13:18:24.372Z,827.00
2023-05-05T13:19:24.414Z,815.00
2023-05-05T13:20:24.473Z,897.00
2023-05-05T13:21:24.671Z,936.00
2023-05-05T13:22:24.615Z,832.00
2023-05-05T13:23:25.921Z,908.00
2023-05-05T13:24:31.656Z,863.00
2023-05-05T13:25:24.796Z,866.00
2023-05-05T13:26:24.727Z,868.00
2023-05-05T13:27:27.916Z,881.00
2023-05-05T13:28:24.730Z,865.00
2023-05-05T13:29:29.546Z,844.00
2023-05-05T13:30:24.725Z,864.00
2023-05-05T13:31:24.770Z,866.00
2023-05-05T13:32:24.743Z,858.00
2023-05-05T13:33:24.688Z,813.00
2023-05-05T13:34:24.703Z,784.00
2023-05-05T13:35:24.688Z,780.00
2023-05-05T13:36:24.701Z,788.00
2023-05-05T13:37:24.803Z,855.00
2023-05-05T13:38:24.678Z,859.00
2023-05-05T13:39:24.668Z,895.00
2023-05-05T13:40:25.956Z,931.00
2023-05-05T13:41:24.673Z,950.00
2023-05-05T13:42:24.680Z,960.00
2023-05-05T13:43:24.730Z,925.00
2023-05-05T13:44:24.778Z,919.00
2023-05-05T13:45:24.823Z,932.00
2023-05-05T13:46:24.970Z,942.00
2023-05-05T13:47:25.062Z,935.00
2023-05-05T13:48:25.308Z,925.00
2023-05-05T13:49:25.071Z,936.00
2023-05-05T13:50:25.074Z,941.00
2023-05-05T13:51:25.125Z,919.00
2023-05-05T13:52:25.158Z,903.00
2023-05-05T13:53:25.364Z,902.00
2023-05-05T13:54:25.231Z,897.00
2023-05-05T13:55:25.226Z,882.00
2023-05-05T13:56:25.302Z,861.00
2023-05-05T13:57:25.266Z,852.00
2023-05-05T13:58:25.336Z,831.00
2023-05-05T13:59:25.312Z,842.00
2023-05-05T14:00:25.740Z,821.00
2023-05-05T14:01:25.337Z,835.00
2023-05-05T14:02:25.520Z,825.00
2023-05-05T14:03:25.413Z,794.00
2023-05-05T14:04:25.599Z,823.00
2023-05-05T14:05:25.459Z,821.00
2023-05-05T14:06:25.480Z,800.00
2023-05-05T14:07:25.481Z,809.00
2023-05-05T14:08:25.524Z,791.00
2023-05-05T14:09:26.066Z,781.00
2023-05-05T14:10:25.497Z,814.00
2023-05-05T14:11:25.460Z,815.00
2023-05-05T14:12:25.453Z,814.00
2023-05-05T14:13:25.451Z,812.00
2023-05-05T14:14:25.443Z,803.00
2023-05-05T14:15:25.825Z,773.00
2023-05-05T14:16:25.492Z,784.00
2023-05-05T14:17:25.534Z,778.00
2023-05-05T14:18:25.481Z,730.00
2023-05-05T14:19:25.488Z,698.00
2023-05-05T14:20:25.473Z,694.00
2023-05-05T14:21:25.499Z,660.00
2023-05-05T14:22:25.497Z,655.00
2023-05-05T14:23:25.484Z,655.00
2023-05-05T14:24:25.485Z,648.00
2023-05-05T14:25:25.617Z,642.00
2023-05-05T14:26:25.474Z,654.00
2023-05-05T14:27:25.463Z,652.00
2023-05-05T14:28:25.513Z,652.00
2023-05-05T14:29:25.454Z,655.00
2023-05-05T14:30:25.444Z,660.00
2023-05-05T14:31:25.490Z,659.00
2023-05-05T14:32:25.485Z,650.00
2023-05-05T14:33:25.433Z,662.00
2023-05-05T14:34:25.819Z,647.00
2023-05-05T14:35:25.432Z,641.00
2023-05-05T14:36:25.447Z,652.00
2023-05-05T14:37:25.450Z,647.00
2023-05-05T14:38:25.485Z,639.00
2023-05-05T14:39:25.818Z,630.00
2023-05-05T14:40:25.461Z,639.00
2023-05-05T14:41:25.554Z,635.00
2023-05-05T14:42:25.463Z,634.00
2023-05-05T14:43:25.471Z,623.00
2023-05-05T14:44:25.820Z,635.00
2023-05-05T14:45:25.474Z,627.00
2023-05-05T14:46:25.891Z,627.00
2023-05-05T14:47:25.515Z,620.00
2023-05-05T14:48:25.493Z,613.00
2023-05-05T14:49:25.487Z,603.00
2023-05-05T14:50:25.523Z,604.00
2023-05-05T14:51:25.493Z,613.00
2023-05-05T14:52:25.503Z,617.00
2023-05-05T14:53:25.504Z,612.00
2023-05-05T14:54:28.612Z,603.00
2023-05-05T14:55:25.522Z,603.00
2023-05-05T14:56:25.515Z,604.00
2023-05-05T14:57:25.588Z,598.00
2023-05-05T14:58:25.522Z,601.00
2023-05-05T14:59:25.512Z,607.00
2023-05-05T15:00:25.525Z,596.00
2023-05-05T15:01:25.563Z,602.00
2023-05-05T15:02:25.627Z,592.00
2023-05-05T15:03:25.654Z,590.00
2023-05-05T15:04:25.515Z,591.00
2023-05-05T15:05:25.883Z,593.00
2023-05-05T15:06:25.508Z,602.00
2023-05-05T15:07:25.503Z,595.00
2023-05-05T15:08:25.497Z,605.00
2023-05-05T15:09:25.484Z,598.00
2023-05-05T15:10:25.502Z,594.00
2023-05-05T15:11:25.488Z,588.00
2023-05-05T15:12:25.485Z,582.00
2023-05-05T15:13:25.503Z,588.00
2023-05-05T15:14:25.476Z,585.00
2023-05-05T15:15:25.462Z,583.00
2023-05-05T15:16:25.486Z,585.00
2023-05-05T15:17:25.506Z,596.00
2023-05-05T15:18:25.471Z,595.00
2023-05-05T15:19:25.468Z,597.00
2023-05-05T15:20:25.477Z,599.00
2023-05-05T15:21:25.482Z,599.00
2023-05-05T15:22:25.462Z,592.00
2023-05-05T15:23:25.457Z,571.00
2023-05-05T15:24:25.462Z,547.00
2023-05-05T15:25:25.465Z,527.00
2023-05-05T15:26:25.474Z,521.00
2023-05-05T15:27:25.463Z,523.00
2023-05-05T15:28:25.471Z,518.00
2023-05-05T15:29:26.020Z,526.00
2023-05-05T15:30:25.453Z,533.00
2023-05-05T15:31:25.524Z,547.00
2023-05-05T15:32:25.559Z,560.00
2023-05-05T15:33:25.446Z,567.00
2023-05-05T15:34:25.435Z,564.00
2023-05-05T15:35:25.440Z,576.00
2023-05-05T15:36:25.429Z,565.00
2023-05-05T15:37:25.430Z,583.00
2023-05-05T15:38:25.435Z,576.00
2023-05-05T15:39:25.519Z,575.00
2023-05-05T15:40:25.507Z,586.00
2023-05-05T15:41:25.544Z,597.00
2023-05-05T15:42:25.583Z,607.00
2023-05-05T15:43:25.620Z,616.00
2023-05-05T15:44:25.670Z,619.00
2023-05-05T15:45:25.825Z,631.00
2023-05-05T15:46:25.778Z,639.00
2023-05-05T15:47:25.809Z,652.00
2023-05-05T15:48:25.797Z,640.00
2023-05-05T15:49:25.837Z,650.00
2023-05-05T15:50:25.872Z,658.00
2023-05-05T15:51:25.914Z,662.00
2023-05-05T15:52:25.960Z,662.00
2023-05-05T15:53:25.988Z,659.00
2023-05-05T15:54:26.041Z,674.00
2023-05-05T15:55:26.105Z,688.00
2023-05-05T15:56:26.132Z,685.00
2023-05-05T15:57:26.159Z,711.00
2023-05-05T15:58:26.211Z,716.00
2023-05-05T15:59:26.242Z,723.00
2023-05-05T16:00:26.281Z,745.00
2023-05-05T16:01:26.485Z,742.00
2023-05-05T16:02:26.462Z,765.00
2023-05-05T16:03:26.477Z,776.00
2023-05-05T16:04:26.520Z,756.00
2023-05-05T16:05:26.508Z,757.00
2023-05-05T16:06:26.541Z,793.00
2023-05-05T16:07:26.892Z,806.00
2023-05-05T16:08:26.881Z,810.00
2023-05-05T16:09:26.722Z,821.00
2023-05-05T16:10:26.727Z,828.00
2023-05-05T16:11:26.785Z,825.00
2023-05-05T16:12:26.820Z,828.00
2023-05-05T16:13:26.872Z,848.00
2023-05-05T16:14:26.906Z,865.00
2023-05-05T16:15:26.957Z,859.00
2023-05-05T16:16:27.033Z,874.00
2023-05-05T16:17:27.258Z,891.00
2023-05-05T16:18:27.140Z,917.00
2023-05-05T16:19:30.385Z,920.00
2023-05-05T16:20:27.167Z,921.00
2023-05-05T16:21:27.166Z,922.00
2023-05-05T16:22:27.168Z,931.00
2023-05-05T16:23:27.183Z,947.00
2023-05-05T16:24:27.185Z,941.00
2023-05-05T16:25:27.203Z,957.00
2023-05-05T16:26:27.222Z,964.00
2023-05-05T16:27:27.209Z,961.00
2023-05-05T16:28:27.227Z,991.00
2023-05-05T16:29:27.225Z,995.00
2023-05-05T16:30:27.237Z,1006.00
2023-05-05T16:31:27.243Z,1009.00
2023-05-05T16:32:27.302Z,994.00
2023-05-05T16:33:27.285Z,1027.00
2023-05-05T16:34:27.272Z,1022.00
2023-05-05T16:35:27.283Z,1043.00
2023-05-05T16:36:27.298Z,1030.00
2023-05-05T16:37:27.300Z,1048.00
2023-05-05T16:38:27.313Z,1059.00
2023-05-05T16:39:27.323Z,1056.00
2023-05-05T16:40:27.334Z,1059.00
2023-05-05T16:41:27.416Z,1070.00
2023-05-05T16:42:27.370Z,1082.00
2023-05-05T16:43:27.378Z,1086.00
2023-05-05T16:44:27.408Z,1089.00
2023-05-05T16:45:28.219Z,1091.00
2023-05-05T16:46:27.443Z,1083.00
2023-05-05T16:47:27.462Z,1077.00
2023-05-05T16:48:27.497Z,1100.00
2023-05-05T16:49:27.709Z,1112.00
2023-05-05T16:50:27.624Z,1108.00
2023-05-05T16:51:27.692Z,1134.00
2023-05-05T16:52:27.755Z,1125.00
2023-05-05T16:53:27.800Z,1134.00
2023-05-05T16:54:27.878Z,1139.00
2023-05-05T16:55:27.933Z,1147.00
2023-05-05T16:56:28.009Z,1137.00
2023-05-05T16:57:28.064Z,1150.00
2023-05-05T16:58:28.158Z,1151.00
2023-05-05T16:59:30.286Z,1160.00
2023-05-05T17:00:28.207Z,1161.00
2023-05-05T17:01:28.227Z,1161.00
2023-05-05T17:02:28.878Z,1163.00
2023-05-05T17:03:28.249Z,1172.00
2023-05-05T17:04:28.260Z,1176.00
2023-05-05T17:05:28.482Z,1177.00
2023-05-05T17:06:28.297Z,1189.00
2023-05-05T17:07:28.311Z,1193.00
2023-05-05T17:08:28.315Z,1191.00
2023-05-05T17:09:28.334Z,1210.00
2023-05-05T17:10:28.342Z,1194.00
2023-05-05T17:11:28.353Z,1202.00
2023-05-05T17:12:28.358Z,1192.00
2023-05-05T17:13:28.373Z,1212.00
2023-05-05T17:14:28.359Z,1209.00
2023-05-05T17:15:28.357Z,1227.00
2023-05-05T17:16:28.474Z,1236.00
2023-05-05T17:17:28.517Z,1239.00
2023-05-05T17:18:28.567Z,1217.00
2023-05-05T17:19:28.649Z,1212.00
2023-05-05T17:20:28.714Z,1217.00
2023-05-05T17:21:28.894Z,1236.00
2023-05-05T17:22:28.870Z,1241.00
2023-05-05T17:23:28.943Z,1225.00
2023-05-05T17:24:29.025Z,1241.00
2023-05-05T17:25:29.100Z,1249.00
2023-05-05T17:26:29.175Z,1258.00
2023-05-05T17:27:29.254Z,1228.00
2023-05-05T17:28:29.333Z,1239.00
2023-05-05T17:29:29.425Z,1247.00
2023-05-05T17:30:29.490Z,1252.00
2023-05-05T17:31:29.565Z,1248.00
2023-05-05T17:32:29.687Z,1273.00
2023-05-05T17:33:29.723Z,1269.00
2023-05-05T17:34:29.795Z,1266.00
2023-05-05T17:35:29.865Z,1259.00
2023-05-05T17:36:29.952Z,1262.00
2023-05-05T17:37:30.136Z,1274.00
2023-05-05T17:38:30.105Z,1285.00
2023-05-05T17:39:30.192Z,1285.00
2023-05-05T17:40:30.501Z,1279.00
2023-05-05T17:41:31.158Z,1281.00
2023-05-05T17:42:31.115Z,1294.00
2023-05-05T17:43:30.718Z,1285.00
2023-05-05T17:44:31.202Z,1285.00
2023-05-05T17:45:31.043Z,1296.00
2023-05-05T17:46:31.151Z,1294.00
2023-05-05T17:47:31.090Z,1292.00
2023-05-05T17:48:30.865Z,1299.00
2023-05-05T17:49:30.897Z,1317.00
2023-05-05T17:50:30.967Z,1297.00
2023-05-05T17:51:30.956Z,1297.00
2023-05-05T17:52:30.973Z,1300.00
2023-05-05T17:53:31.088Z,1306.00
2023-05-05T17:54:31.016Z,1282.00